sensor_id;sensor_type;location;lat;lon;timestamp;temperature;humidity
66728;DHT22;53641;44.274;19.890;2022-11-22T00:00:05;5.40;99.90
66728;DHT22;53641;44.274;19.890;2022-11-22T00:02:34;5.40;99.90
66728;DHT22;53641;44.274;19.890;2022-11-22T00:05:00;5.30;99.90
66728;DHT22;53641;44.274;19.890;2022-11-22T00:07:28;5.20;99.90
66728;DHT22;53641;44.274;19.890;2022-11-22T00:13:00;5.20;99.90
66728;DHT22;53641;44.274;19.890;2022-11-22T00:15:25;5.20;99.90
66728;DHT22;53641;44.274;19.890;2022-11-22T00:17:51;5.20;99.90
66728;DHT22;53641;44.274;19.890;2022-11-22T00:20:17;5.20;99.90
66728;DHT22;53641;44.274;19.890;2022-11-22T00:22:43;5.20;99.90
66728;DHT22;53641;44.274;19.890;2022-11-22T00:25:09;5.10;99.90
66728;DHT22;53641;44.274;19.890;2022-11-22T00:27:35;5.10;99.90
66728;DHT22;53641;44.274;19.890;2022-11-22T00:30:00;5.10;99.90
66728;DHT22;53641;44.274;19.890;2022-11-22T00:32:26;5.00;99.90
66728;DHT22;53641;44.274;19.890;2022-11-22T00:34:52;5.00;99.90
66728;DHT22;53641;44.274;19.890;2022-11-22T00:37:18;5.00;99.90
66728;DHT22;53641;44.274;19.890;2022-11-22T00:39:43;5.00;99.90
66728;DHT22;53641;44.274;19.890;2022-11-22T00:42:09;5.10;99.90
66728;DHT22;53641;44.274;19.890;2022-11-22T00:44:35;5.00;99.90
66728;DHT22;53641;44.274;19.890;2022-11-22T00:47:21;5.00;99.90
66728;DHT22;53641;44.274;19.890;2022-11-22T00:50:09;5.00;99.90
66728;DHT22;53641;44.274;19.890;2022-11-22T00:52:34;4.90;99.90
66728;DHT22;53641;44.274;19.890;2022-11-22T00:55:00;5.00;99.90
66728;DHT22;53641;44.274;19.890;2022-11-22T00:57:26;5.00;99.90
66728;DHT22;53641;44.274;19.890;2022-11-22T00:59:51;4.90;99.90
66728;DHT22;53641;44.274;19.890;2022-11-22T01:05:23;4.80;99.90
66728;DHT22;53641;44.274;19.890;2022-11-22T01:07:49;5.00;99.90
66728;DHT22;53641;44.274;19.890;2022-11-22T01:10:15;5.00;99.90
66728;DHT22;53641;44.274;19.890;2022-11-22T01:12:41;4.90;99.90
66728;DHT22;53641;44.274;19.890;2022-11-22T01:15:07;4.90;99.90
66728;DHT22;53641;44.274;19.890;2022-11-22T01:17:33;4.70;99.90
66728;DHT22;53641;44.274;19.890;2022-11-22T01:19:59;4.70;99.90
66728;DHT22;53641;44.274;19.890;2022-11-22T01:22:27;4.70;99.90
66728;DHT22;53641;44.274;19.890;2022-11-22T01:24:53;4.70;99.90
66728;DHT22;53641;44.274;19.890;2022-11-22T01:27:19;4.70;99.90
66728;DHT22;53641;44.274;19.890;2022-11-22T01:29:44;4.60;99.90
66728;DHT22;53641;44.274;19.890;2022-11-22T01:32:10;4.60;99.90
66728;DHT22;53641;44.274;19.890;2022-11-22T01:34:56;4.70;99.90
66728;DHT22;53641;44.274;19.890;2022-11-22T01:37:22;4.50;99.90
66728;DHT22;53641;44.274;19.890;2022-11-22T01:39:48;4.60;99.90
66728;DHT22;53641;44.274;19.890;2022-11-22T01:42:55;4.50;99.90
66728;DHT22;53641;44.274;19.890;2022-11-22T01:45:40;4.50;99.90
66728;DHT22;53641;44.274;19.890;2022-11-22T01:48:14;4.50;99.90
66728;DHT22;53641;44.274;19.890;2022-11-22T01:50:43;4.50;99.90
66728;DHT22;53641;44.274;19.890;2022-11-22T01:53:27;4.50;99.90
66728;DHT22;53641;44.274;19.890;2022-11-22T01:55:55;4.50;99.90
66728;DHT22;53641;44.274;19.890;2022-11-22T01:58:27;4.60;99.90
66728;DHT22;53641;44.274;19.890;2022-11-22T02:00:55;4.60;99.90
66728;DHT22;53641;44.274;19.890;2022-11-22T02:03:21;4.60;99.90
66728;DHT22;53641;44.274;19.890;2022-11-22T02:05:48;4.50;99.90
66728;DHT22;53641;44.274;19.890;2022-11-22T02:08:21;4.50;99.90
66728;DHT22;53641;44.274;19.890;2022-11-22T02:10:51;4.60;99.90
66728;DHT22;53641;44.274;19.890;2022-11-22T02:13:19;4.60;99.90
66728;DHT22;53641;44.274;19.890;2022-11-22T02:15:46;4.60;99.90
66728;DHT22;53641;44.274;19.890;2022-11-22T02:18:13;4.70;99.90
66728;DHT22;53641;44.274;19.890;2022-11-22T02:20:39;4.60;99.90
66728;DHT22;53641;44.274;19.890;2022-11-22T02:23:21;4.50;99.90
66728;DHT22;53641;44.274;19.890;2022-11-22T02:25:50;4.50;99.90
66728;DHT22;53641;44.274;19.890;2022-11-22T02:28:16;4.50;99.90
66728;DHT22;53641;44.274;19.890;2022-11-22T02:30:42;4.50;99.90
66728;DHT22;53641;44.274;19.890;2022-11-22T02:33:28;4.50;99.90
66728;DHT22;53641;44.274;19.890;2022-11-22T02:35:54;4.50;99.90
66728;DHT22;53641;44.274;19.890;2022-11-22T02:38:25;4.50;99.90
66728;DHT22;53641;44.274;19.890;2022-11-22T02:40:57;4.50;99.90
66728;DHT22;53641;44.274;19.890;2022-11-22T02:43:31;4.40;99.90
66728;DHT22;53641;44.274;19.890;2022-11-22T02:46:06;4.30;99.90
66728;DHT22;53641;44.274;19.890;2022-11-22T02:48:32;4.40;99.90
66728;DHT22;53641;44.274;19.890;2022-11-22T02:50:57;4.40;99.90
66728;DHT22;53641;44.274;19.890;2022-11-22T02:53:23;4.40;99.90
66728;DHT22;53641;44.274;19.890;2022-11-22T02:55:49;4.30;99.90
66728;DHT22;53641;44.274;19.890;2022-11-22T02:58:15;4.30;99.90
66728;DHT22;53641;44.274;19.890;2022-11-22T03:00:41;4.40;99.90
66728;DHT22;53641;44.274;19.890;2022-11-22T03:03:07;4.40;99.90
66728;DHT22;53641;44.274;19.890;2022-11-22T03:05:33;4.50;99.90
66728;DHT22;53641;44.274;19.890;2022-11-22T03:07:58;4.40;99.90
66728;DHT22;53641;44.274;19.890;2022-11-22T03:10:24;4.40;99.90
66728;DHT22;53641;44.274;19.890;2022-11-22T03:12:50;4.30;99.90
66728;DHT22;53641;44.274;19.890;2022-11-22T03:15:16;4.30;99.90
66728;DHT22;53641;44.274;19.890;2022-11-22T03:17:42;4.30;99.90
66728;DHT22;53641;44.274;19.890;2022-11-22T03:20:08;4.30;99.90
66728;DHT22;53641;44.274;19.890;2022-11-22T03:22:34;4.30;99.90
66728;DHT22;53641;44.274;19.890;2022-11-22T03:25:00;4.20;99.90
66728;DHT22;53641;44.274;19.890;2022-11-22T03:27:25;4.20;99.90
66728;DHT22;53641;44.274;19.890;2022-11-22T03:29:51;4.20;99.90
66728;DHT22;53641;44.274;19.890;2022-11-22T03:32:17;4.20;99.90
66728;DHT22;53641;44.274;19.890;2022-11-22T03:34:43;4.10;99.90
66728;DHT22;53641;44.274;19.890;2022-11-22T03:37:08;4.10;99.90
66728;DHT22;53641;44.274;19.890;2022-11-22T03:39:34;4.10;99.90
66728;DHT22;53641;44.274;19.890;2022-11-22T03:42:00;4.30;99.90
66728;DHT22;53641;44.274;19.890;2022-11-22T03:44:26;4.40;99.90
66728;DHT22;53641;44.274;19.890;2022-11-22T03:46:51;4.30;99.90
66728;DHT22;53641;44.274;19.890;2022-11-22T03:49:17;4.20;99.90
66728;DHT22;53641;44.274;19.890;2022-11-22T03:51:43;4.10;99.90
66728;DHT22;53641;44.274;19.890;2022-11-22T03:54:09;4.10;99.90
66728;DHT22;53641;44.274;19.890;2022-11-22T03:56:34;4.20;99.90
66728;DHT22;53641;44.274;19.890;2022-11-22T03:59:00;4.20;99.90
66728;DHT22;53641;44.274;19.890;2022-11-22T04:01:26;4.10;99.90
66728;DHT22;53641;44.274;19.890;2022-11-22T04:03:52;4.20;99.90
66728;DHT22;53641;44.274;19.890;2022-11-22T04:06:17;4.10;99.90
66728;DHT22;53641;44.274;19.890;2022-11-22T04:08:43;4.00;99.90
66728;DHT22;53641;44.274;19.890;2022-11-22T04:11:09;4.10;99.90
66728;DHT22;53641;44.274;19.890;2022-11-22T04:13:35;4.10;99.90
66728;DHT22;53641;44.274;19.890;2022-11-22T04:16:20;4.10;99.90
66728;DHT22;53641;44.274;19.890;2022-11-22T04:18:46;4.00;99.90
66728;DHT22;53641;44.274;19.890;2022-11-22T04:21:12;4.10;99.90
66728;DHT22;53641;44.274;19.890;2022-11-22T04:23:58;4.10;99.90
66728;DHT22;53641;44.274;19.890;2022-11-22T04:26:43;4.20;99.90
66728;DHT22;53641;44.274;19.890;2022-11-22T04:29:09;4.20;99.90
66728;DHT22;53641;44.274;19.890;2022-11-22T04:31:35;4.10;99.90
66728;DHT22;53641;44.274;19.890;2022-11-22T04:34:21;4.20;99.90
66728;DHT22;53641;44.274;19.890;2022-11-22T04:36:46;4.10;99.90
66728;DHT22;53641;44.274;19.890;2022-11-22T04:39:12;4.00;99.90
66728;DHT22;53641;44.274;19.890;2022-11-22T04:41:38;4.00;99.90
66728;DHT22;53641;44.274;19.890;2022-11-22T04:44:04;4.10;99.90
66728;DHT22;53641;44.274;19.890;2022-11-22T04:46:49;4.00;99.90
66728;DHT22;53641;44.274;19.890;2022-11-22T04:49:15;4.10;99.90
66728;DHT22;53641;44.274;19.890;2022-11-22T04:51:41;4.20;99.90
66728;DHT22;53641;44.274;19.890;2022-11-22T04:54:26;4.00;99.90
66728;DHT22;53641;44.274;19.890;2022-11-22T04:56:52;4.00;99.90
66728;DHT22;53641;44.274;19.890;2022-11-22T04:59:18;4.00;99.90
66728;DHT22;53641;44.274;19.890;2022-11-22T05:01:44;3.90;99.90
66728;DHT22;53641;44.274;19.890;2022-11-22T05:04:09;3.90;99.90
66728;DHT22;53641;44.274;19.890;2022-11-22T05:06:36;4.00;99.90
66728;DHT22;53641;44.274;19.890;2022-11-22T05:09:01;4.00;99.90
66728;DHT22;53641;44.274;19.890;2022-11-22T05:11:27;4.10;99.90
66728;DHT22;53641;44.274;19.890;2022-11-22T05:13:53;4.20;99.90
66728;DHT22;53641;44.274;19.890;2022-11-22T05:16:19;4.00;99.90
66728;DHT22;53641;44.274;19.890;2022-11-22T05:18:44;4.00;99.90
66728;DHT22;53641;44.274;19.890;2022-11-22T05:21:24;4.10;99.90
66728;DHT22;53641;44.274;19.890;2022-11-22T05:23:50;4.00;99.90
66728;DHT22;53641;44.274;19.890;2022-11-22T05:26:20;4.10;99.90
66728;DHT22;53641;44.274;19.890;2022-11-22T05:28:46;4.10;99.90
66728;DHT22;53641;44.274;19.890;2022-11-22T05:31:14;4.00;99.90
66728;DHT22;53641;44.274;19.890;2022-11-22T05:33:42;4.00;99.90
66728;DHT22;53641;44.274;19.890;2022-11-22T05:36:10;4.00;99.90
66728;DHT22;53641;44.274;19.890;2022-11-22T05:38:36;4.00;99.90
66728;DHT22;53641;44.274;19.890;2022-11-22T05:41:04;4.10;99.90
66728;DHT22;53641;44.274;19.890;2022-11-22T05:43:30;4.20;99.90
66728;DHT22;53641;44.274;19.890;2022-11-22T05:46:03;4.70;99.90
66728;DHT22;53641;44.274;19.890;2022-11-22T05:48:29;4.50;99.90
66728;DHT22;53641;44.274;19.890;2022-11-22T05:50:54;4.60;99.90
66728;DHT22;53641;44.274;19.890;2022-11-22T05:53:20;4.50;99.90
66728;DHT22;53641;44.274;19.890;2022-11-22T05:55:46;4.80;99.90
66728;DHT22;53641;44.274;19.890;2022-11-22T05:58:12;5.10;99.90
66728;DHT22;53641;44.274;19.890;2022-11-22T06:00:37;5.00;99.90
66728;DHT22;53641;44.274;19.890;2022-11-22T06:03:06;5.10;99.90
66728;DHT22;53641;44.274;19.890;2022-11-22T06:05:32;4.80;99.90
66728;DHT22;53641;44.274;19.890;2022-11-22T06:07:59;4.90;99.90
66728;DHT22;53641;44.274;19.890;2022-11-22T06:10:28;5.10;99.90
66728;DHT22;53641;44.274;19.890;2022-11-22T06:12:53;4.90;99.90
66728;DHT22;53641;44.274;19.890;2022-11-22T06:15:20;4.90;99.90
66728;DHT22;53641;44.274;19.890;2022-11-22T06:17:46;5.00;99.90
66728;DHT22;53641;44.274;19.890;2022-11-22T06:20:12;5.10;99.90
66728;DHT22;53641;44.274;19.890;2022-11-22T06:22:38;5.20;99.90
66728;DHT22;53641;44.274;19.890;2022-11-22T06:25:04;5.00;99.90
66728;DHT22;53641;44.274;19.890;2022-11-22T06:27:30;5.10;99.90
66728;DHT22;53641;44.274;19.890;2022-11-22T06:29:56;5.40;99.90
66728;DHT22;53641;44.274;19.890;2022-11-22T06:32:21;5.30;99.90
66728;DHT22;53641;44.274;19.890;2022-11-22T06:34:47;5.50;99.90
66728;DHT22;53641;44.274;19.890;2022-11-22T06:37:16;5.40;99.90
66728;DHT22;53641;44.274;19.890;2022-11-22T06:39:42;5.30;99.90
66728;DHT22;53641;44.274;19.890;2022-11-22T06:42:08;5.40;99.90
66728;DHT22;53641;44.274;19.890;2022-11-22T06:44:34;5.50;99.90
66728;DHT22;53641;44.274;19.890;2022-11-22T06:46:59;5.50;99.90
66728;DHT22;53641;44.274;19.890;2022-11-22T06:49:25;5.40;99.90
66728;DHT22;53641;44.274;19.890;2022-11-22T06:51:51;5.50;99.90
66728;DHT22;53641;44.274;19.890;2022-11-22T06:54:17;5.40;99.90
66728;DHT22;53641;44.274;19.890;2022-11-22T06:56:46;5.50;99.90
66728;DHT22;53641;44.274;19.890;2022-11-22T06:59:11;5.50;99.90
66728;DHT22;53641;44.274;19.890;2022-11-22T07:01:37;5.50;99.90
66728;DHT22;53641;44.274;19.890;2022-11-22T07:04:04;5.50;99.90
66728;DHT22;53641;44.274;19.890;2022-11-22T07:06:32;5.50;99.90
66728;DHT22;53641;44.274;19.890;2022-11-22T07:08:59;5.60;99.90
66728;DHT22;53641;44.274;19.890;2022-11-22T07:11:29;5.70;99.90
66728;DHT22;53641;44.274;19.890;2022-11-22T07:13:56;5.80;99.90
66728;DHT22;53641;44.274;19.890;2022-11-22T07:16:23;5.40;99.90
66728;DHT22;53641;44.274;19.890;2022-11-22T07:18:49;5.60;99.90
66728;DHT22;53641;44.274;19.890;2022-11-22T07:21:19;5.60;99.90
66728;DHT22;53641;44.274;19.890;2022-11-22T07:23:47;5.60;99.90
66728;DHT22;53641;44.274;19.890;2022-11-22T07:26:14;5.70;99.90
66728;DHT22;53641;44.274;19.890;2022-11-22T07:28:40;5.90;99.90
66728;DHT22;53641;44.274;19.890;2022-11-22T07:31:07;6.00;99.90
66728;DHT22;53641;44.274;19.890;2022-11-22T07:33:33;6.20;99.90
66728;DHT22;53641;44.274;19.890;2022-11-22T07:36:08;6.30;99.90
66728;DHT22;53641;44.274;19.890;2022-11-22T07:38:34;6.20;99.90
66728;DHT22;53641;44.274;19.890;2022-11-22T07:41:00;6.30;99.90
66728;DHT22;53641;44.274;19.890;2022-11-22T07:43:26;6.60;99.90
66728;DHT22;53641;44.274;19.890;2022-11-22T07:45:51;6.80;99.90
66728;DHT22;53641;44.274;19.890;2022-11-22T07:48:17;7.10;99.90
66728;DHT22;53641;44.274;19.890;2022-11-22T07:50:43;7.10;99.90
66728;DHT22;53641;44.274;19.890;2022-11-22T07:53:09;7.30;99.90
66728;DHT22;53641;44.274;19.890;2022-11-22T07:55:35;7.40;99.90
66728;DHT22;53641;44.274;19.890;2022-11-22T07:58:06;7.50;99.90
66728;DHT22;53641;44.274;19.890;2022-11-22T08:00:32;7.60;99.90
66728;DHT22;53641;44.274;19.890;2022-11-22T08:02:58;7.90;99.90
66728;DHT22;53641;44.274;19.890;2022-11-22T08:05:24;8.00;99.90
66728;DHT22;53641;44.274;19.890;2022-11-22T08:07:51;7.90;99.90
66728;DHT22;53641;44.274;19.890;2022-11-22T08:10:18;8.00;99.90
66728;DHT22;53641;44.274;19.890;2022-11-22T08:12:44;8.10;99.90
66728;DHT22;53641;44.274;19.890;2022-11-22T08:15:11;8.20;99.90
66728;DHT22;53641;44.274;19.890;2022-11-22T08:17:38;8.20;99.90
66728;DHT22;53641;44.274;19.890;2022-11-22T08:20:05;8.40;99.90
66728;DHT22;53641;44.274;19.890;2022-11-22T08:22:34;8.30;99.90
66728;DHT22;53641;44.274;19.890;2022-11-22T08:24:59;8.50;99.90
66728;DHT22;53641;44.274;19.890;2022-11-22T08:27:25;8.50;99.90
66728;DHT22;53641;44.274;19.890;2022-11-22T08:29:51;8.70;99.90
66728;DHT22;53641;44.274;19.890;2022-11-22T08:32:17;8.80;99.90
66728;DHT22;53641;44.274;19.890;2022-11-22T08:34:42;8.40;99.90
66728;DHT22;53641;44.274;19.890;2022-11-22T08:37:08;8.60;99.90
66728;DHT22;53641;44.274;19.890;2022-11-22T08:39:34;8.60;99.90
66728;DHT22;53641;44.274;19.890;2022-11-22T08:42:05;8.60;99.90
66728;DHT22;53641;44.274;19.890;2022-11-22T08:44:32;8.60;99.90
66728;DHT22;53641;44.274;19.890;2022-11-22T08:47:16;8.80;99.90
66728;DHT22;53641;44.274;19.890;2022-11-22T08:49:42;8.70;99.90
66728;DHT22;53641;44.274;19.890;2022-11-22T08:52:13;8.60;99.90
66728;DHT22;53641;44.274;19.890;2022-11-22T08:54:39;8.50;99.90
66728;DHT22;53641;44.274;19.890;2022-11-22T08:57:05;8.30;99.90
66728;DHT22;53641;44.274;19.890;2022-11-22T08:59:31;8.10;99.90
66728;DHT22;53641;44.274;19.890;2022-11-22T09:01:57;8.20;99.90
66728;DHT22;53641;44.274;19.890;2022-11-22T09:04:22;8.50;99.90
66728;DHT22;53641;44.274;19.890;2022-11-22T09:06:48;8.70;99.90
66728;DHT22;53641;44.274;19.890;2022-11-22T09:09:14;8.70;99.90
66728;DHT22;53641;44.274;19.890;2022-11-22T09:11:40;8.80;99.90
66728;DHT22;53641;44.274;19.890;2022-11-22T09:14:06;8.70;99.90
66728;DHT22;53641;44.274;19.890;2022-11-22T09:16:31;8.50;99.90
66728;DHT22;53641;44.274;19.890;2022-11-22T09:18:57;8.40;99.90
66728;DHT22;53641;44.274;19.890;2022-11-22T09:21:26;8.50;99.90
66728;DHT22;53641;44.274;19.890;2022-11-22T09:23:57;8.70;99.90
66728;DHT22;53641;44.274;19.890;2022-11-22T09:26:23;8.80;99.90
66728;DHT22;53641;44.274;19.890;2022-11-22T09:28:49;8.90;99.90
66728;DHT22;53641;44.274;19.890;2022-11-22T09:31:17;8.80;99.90
66728;DHT22;53641;44.274;19.890;2022-11-22T09:33:44;8.70;99.90
66728;DHT22;53641;44.274;19.890;2022-11-22T09:36:12;8.90;99.90
66728;DHT22;53641;44.274;19.890;2022-11-22T09:38:38;9.00;99.90
66728;DHT22;53641;44.274;19.890;2022-11-22T09:41:18;9.00;99.90
66728;DHT22;53641;44.274;19.890;2022-11-22T09:43:56;9.10;99.90
66728;DHT22;53641;44.274;19.890;2022-11-22T09:46:41;9.10;99.90
66728;DHT22;53641;44.274;19.890;2022-11-22T09:49:35;9.00;99.90
66728;DHT22;53641;44.274;19.890;2022-11-22T09:52:11;9.10;99.90
66728;DHT22;53641;44.274;19.890;2022-11-22T09:54:46;9.20;99.90
66728;DHT22;53641;44.274;19.890;2022-11-22T09:57:27;9.10;99.90
66728;DHT22;53641;44.274;19.890;2022-11-22T10:00:24;9.20;99.90
66728;DHT22;53641;44.274;19.890;2022-11-22T10:03:10;9.20;99.90
66728;DHT22;53641;44.274;19.890;2022-11-22T10:06:00;9.30;99.90
66728;DHT22;53641;44.274;19.890;2022-11-22T10:08:37;9.30;99.90
66728;DHT22;53641;44.274;19.890;2022-11-22T10:11:12;9.40;99.90
66728;DHT22;53641;44.274;19.890;2022-11-22T10:13:48;9.40;99.90
66728;DHT22;53641;44.274;19.890;2022-11-22T10:16:19;9.50;99.90
66728;DHT22;53641;44.274;19.890;2022-11-22T10:19:12;9.50;99.90
66728;DHT22;53641;44.274;19.890;2022-11-22T10:21:40;9.50;99.90
66728;DHT22;53641;44.274;19.890;2022-11-22T10:24:16;9.60;99.90
66728;DHT22;53641;44.274;19.890;2022-11-22T10:26:45;9.50;99.90
66728;DHT22;53641;44.274;19.890;2022-11-22T10:29:37;9.50;99.90
66728;DHT22;53641;44.274;19.890;2022-11-22T10:33:03;9.60;99.90
66728;DHT22;53641;44.274;19.890;2022-11-22T10:36:23;9.70;99.90
66728;DHT22;53641;44.274;19.890;2022-11-22T10:38:35;9.70;99.90
66728;DHT22;53641;44.274;19.890;2022-11-22T10:41:12;9.80;99.90
66728;DHT22;53641;44.274;19.890;2022-11-22T10:43:54;9.90;99.90
66728;DHT22;53641;44.274;19.890;2022-11-22T10:46:45;10.00;99.90
66728;DHT22;53641;44.274;19.890;2022-11-22T10:49:29;10.00;99.90
66728;DHT22;53641;44.274;19.890;2022-11-22T10:52:14;10.00;99.90
66728;DHT22;53641;44.274;19.890;2022-11-22T10:59:32;10.20;99.90
66728;DHT22;53641;44.274;19.890;2022-11-22T11:00:58;10.30;99.90
66728;DHT22;53641;44.274;19.890;2022-11-22T11:03:39;10.20;99.90
66728;DHT22;53641;44.274;19.890;2022-11-22T11:06:16;10.30;99.90
66728;DHT22;53641;44.274;19.890;2022-11-22T11:09:00;10.40;99.90
66728;DHT22;53641;44.274;19.890;2022-11-22T11:11:28;10.30;99.90
66728;DHT22;53641;44.274;19.890;2022-11-22T11:14:01;10.40;99.90
66728;DHT22;53641;44.274;19.890;2022-11-22T11:16:34;10.40;99.90
66728;DHT22;53641;44.274;19.890;2022-11-22T11:19:15;10.30;99.90
66728;DHT22;53641;44.274;19.890;2022-11-22T11:21:58;10.20;99.90
66728;DHT22;53641;44.274;19.890;2022-11-22T11:24:28;10.10;99.90
66728;DHT22;53641;44.274;19.890;2022-11-22T11:26:55;10.10;99.90
66728;DHT22;53641;44.274;19.890;2022-11-22T11:29:35;10.30;99.90
66728;DHT22;53641;44.274;19.890;2022-11-22T11:32:11;10.30;99.90
66728;DHT22;53641;44.274;19.890;2022-11-22T11:34:40;10.40;99.90
66728;DHT22;53641;44.274;19.890;2022-11-22T11:37:20;10.30;99.90
66728;DHT22;53641;44.274;19.890;2022-11-22T11:40:28;10.30;99.90
66728;DHT22;53641;44.274;19.890;2022-11-22T11:42:41;10.30;99.90
66728;DHT22;53641;44.274;19.890;2022-11-22T11:45:27;10.30;99.90
66728;DHT22;53641;44.274;19.890;2022-11-22T11:48:29;10.40;99.90
66728;DHT22;53641;44.274;19.890;2022-11-22T11:51:42;10.50;99.90
66728;DHT22;53641;44.274;19.890;2022-11-22T11:54:09;10.60;99.90
66728;DHT22;53641;44.274;19.890;2022-11-22T11:56:55;10.60;99.90
66728;DHT22;53641;44.274;19.890;2022-11-22T11:59:44;10.50;99.90
66728;DHT22;53641;44.274;19.890;2022-11-22T12:02:14;10.60;99.90
66728;DHT22;53641;44.274;19.890;2022-11-22T12:04:51;10.70;99.90
66728;DHT22;53641;44.274;19.890;2022-11-22T12:07:26;10.80;99.90
66728;DHT22;53641;44.274;19.890;2022-11-22T12:09:53;10.80;99.90
66728;DHT22;53641;44.274;19.890;2022-11-22T12:12:42;10.80;99.90
66728;DHT22;53641;44.274;19.890;2022-11-22T12:15:18;10.50;99.90
66728;DHT22;53641;44.274;19.890;2022-11-22T12:17:53;10.20;99.90
66728;DHT22;53641;44.274;19.890;2022-11-22T12:20:25;10.00;99.90
66728;DHT22;53641;44.274;19.890;2022-11-22T12:23:38;10.00;99.90
66728;DHT22;53641;44.274;19.890;2022-11-22T12:26:06;9.90;99.90
66728;DHT22;53641;44.274;19.890;2022-11-22T12:28:39;9.90;99.90
66728;DHT22;53641;44.274;19.890;2022-11-22T12:31:14;10.00;99.90
66728;DHT22;53641;44.274;19.890;2022-11-22T12:33:48;10.00;99.90
66728;DHT22;53641;44.274;19.890;2022-11-22T12:36:21;10.00;99.90
66728;DHT22;53641;44.274;19.890;2022-11-22T12:38:50;10.10;99.90
66728;DHT22;53641;44.274;19.890;2022-11-22T12:41:20;10.10;99.90
66728;DHT22;53641;44.274;19.890;2022-11-22T12:43:53;10.10;99.90
66728;DHT22;53641;44.274;19.890;2022-11-22T12:46:20;10.00;99.90
66728;DHT22;53641;44.274;19.890;2022-11-22T12:49:01;10.00;99.90
66728;DHT22;53641;44.274;19.890;2022-11-22T12:51:39;10.00;99.90
66728;DHT22;53641;44.274;19.890;2022-11-22T12:54:12;10.00;99.90
66728;DHT22;53641;44.274;19.890;2022-11-22T12:56:50;10.00;99.90
66728;DHT22;53641;44.274;19.890;2022-11-22T12:59:42;9.90;99.90
66728;DHT22;53641;44.274;19.890;2022-11-22T13:02:19;10.00;99.90
66728;DHT22;53641;44.274;19.890;2022-11-22T13:04:54;10.10;99.90
66728;DHT22;53641;44.274;19.890;2022-11-22T13:07:50;10.20;99.90
66728;DHT22;53641;44.274;19.890;2022-11-22T13:10:42;10.30;99.90
66728;DHT22;53641;44.274;19.890;2022-11-22T13:13:31;10.40;99.90
66728;DHT22;53641;44.274;19.890;2022-11-22T13:16:01;10.40;99.90
66728;DHT22;53641;44.274;19.890;2022-11-22T13:18:31;10.50;99.90
66728;DHT22;53641;44.274;19.890;2022-11-22T13:21:05;10.50;99.90
66728;DHT22;53641;44.274;19.890;2022-11-22T13:24:09;10.50;99.90
66728;DHT22;53641;44.274;19.890;2022-11-22T13:27:17;10.60;99.90
66728;DHT22;53641;44.274;19.890;2022-11-22T13:29:39;10.60;99.90
66728;DHT22;53641;44.274;19.890;2022-11-22T13:32:16;10.60;99.90
66728;DHT22;53641;44.274;19.890;2022-11-22T13:35:25;10.50;99.90
66728;DHT22;53641;44.274;19.890;2022-11-22T13:37:52;10.50;99.90
66728;DHT22;53641;44.274;19.890;2022-11-22T13:40:22;10.40;99.90
66728;DHT22;53641;44.274;19.890;2022-11-22T13:45:57;10.30;99.90
66728;DHT22;53641;44.274;19.890;2022-11-22T13:49:06;10.30;99.90
66728;DHT22;53641;44.274;19.890;2022-11-22T13:51:55;10.20;99.90
66728;DHT22;53641;44.274;19.890;2022-11-22T13:54:56;10.20;99.90
66728;DHT22;53641;44.274;19.890;2022-11-22T13:57:30;10.10;99.90
66728;DHT22;53641;44.274;19.890;2022-11-22T14:00:34;10.00;99.90
66728;DHT22;53641;44.274;19.890;2022-11-22T14:03:20;10.00;99.90
66728;DHT22;53641;44.274;19.890;2022-11-22T14:05:50;9.90;99.90
66728;DHT22;53641;44.274;19.890;2022-11-22T14:08:33;9.90;99.90
66728;DHT22;53641;44.274;19.890;2022-11-22T14:11:35;9.90;99.90
66728;DHT22;53641;44.274;19.890;2022-11-22T14:14:22;10.00;99.90
66728;DHT22;53641;44.274;19.890;2022-11-22T14:17:23;10.10;99.90
66728;DHT22;53641;44.274;19.890;2022-11-22T14:20:53;10.20;99.90
66728;DHT22;53641;44.274;19.890;2022-11-22T14:23:23;10.20;99.90
66728;DHT22;53641;44.274;19.890;2022-11-22T14:25:59;10.30;99.90
66728;DHT22;53641;44.274;19.890;2022-11-22T14:29:05;10.30;99.90
66728;DHT22;53641;44.274;19.890;2022-11-22T14:31:35;10.30;99.90
66728;DHT22;53641;44.274;19.890;2022-11-22T14:34:21;10.40;99.90
66728;DHT22;53641;44.274;19.890;2022-11-22T14:37:34;10.40;99.90
66728;DHT22;53641;44.274;19.890;2022-11-22T14:40:14;10.40;99.90
66728;DHT22;53641;44.274;19.890;2022-11-22T14:42:44;10.50;99.90
66728;DHT22;53641;44.274;19.890;2022-11-22T14:45:20;10.50;99.90
66728;DHT22;53641;44.274;19.890;2022-11-22T14:48:04;10.50;99.90
66728;DHT22;53641;44.274;19.890;2022-11-22T14:50:43;10.50;99.90
66728;DHT22;53641;44.274;19.890;2022-11-22T14:53:53;10.50;99.90
66728;DHT22;53641;44.274;19.890;2022-11-22T14:56:13;10.50;99.90
66728;DHT22;53641;44.274;19.890;2022-11-22T14:58:45;10.60;99.90
66728;DHT22;53641;44.274;19.890;2022-11-22T15:01:31;10.50;99.90
66728;DHT22;53641;44.274;19.890;2022-11-22T15:04:13;10.60;99.90
66728;DHT22;53641;44.274;19.890;2022-11-22T15:07:10;10.60;99.90
66728;DHT22;53641;44.274;19.890;2022-11-22T15:10:04;10.60;99.90
66728;DHT22;53641;44.274;19.890;2022-11-22T15:12:58;10.60;99.90
66728;DHT22;53641;44.274;19.890;2022-11-22T15:15:37;10.60;99.90
66728;DHT22;53641;44.274;19.890;2022-11-22T15:18:15;10.60;99.90
66728;DHT22;53641;44.274;19.890;2022-11-22T15:20:42;10.60;99.90
66728;DHT22;53641;44.274;19.890;2022-11-22T15:23:23;10.40;99.90
66728;DHT22;53641;44.274;19.890;2022-11-22T15:26:04;10.50;99.90
66728;DHT22;53641;44.274;19.890;2022-11-22T15:28:30;10.50;99.90
66728;DHT22;53641;44.274;19.890;2022-11-22T15:30:58;10.50;99.90
66728;DHT22;53641;44.274;19.890;2022-11-22T15:33:29;10.50;99.90
66728;DHT22;53641;44.274;19.890;2022-11-22T15:36:05;10.50;99.90
66728;DHT22;53641;44.274;19.890;2022-11-22T15:38:33;10.60;99.90
66728;DHT22;53641;44.274;19.890;2022-11-22T15:41:12;10.60;99.90
66728;DHT22;53641;44.274;19.890;2022-11-22T15:43:38;10.70;99.90
66728;DHT22;53641;44.274;19.890;2022-11-22T15:46:04;10.70;99.90
66728;DHT22;53641;44.274;19.890;2022-11-22T15:48:33;10.70;99.90
66728;DHT22;53641;44.274;19.890;2022-11-22T15:51:24;10.70;99.90
66728;DHT22;53641;44.274;19.890;2022-11-22T15:53:59;10.70;99.90
66728;DHT22;53641;44.274;19.890;2022-11-22T15:56:36;10.80;99.90
66728;DHT22;53641;44.274;19.890;2022-11-22T15:59:10;10.80;99.90
66728;DHT22;53641;44.274;19.890;2022-11-22T16:01:39;10.90;99.90
66728;DHT22;53641;44.274;19.890;2022-11-22T16:04:22;10.90;99.90
66728;DHT22;53641;44.274;19.890;2022-11-22T16:06:50;10.90;99.90
66728;DHT22;53641;44.274;19.890;2022-11-22T16:09:26;11.00;99.90
66728;DHT22;53641;44.274;19.890;2022-11-22T16:11:54;11.00;99.90
66728;DHT22;53641;44.274;19.890;2022-11-22T16:14:39;11.00;99.90